createdAt,value
2018-12-06T00:01:51.486Z,98.20
2018-12-06T00:04:20.210Z,97.70
2018-12-06T00:06:48.667Z,97.70
2018-12-06T00:09:17.179Z,97.60
2018-12-06T00:11:45.761Z,97.60
2018-12-06T00:14:15.128Z,98.10
2018-12-06T00:16:54.363Z,97.40
2018-12-06T00:19:23.121Z,97.10
2018-12-06T00:21:51.598Z,97.70
2018-12-06T00:24:21.143Z,97.10
2018-12-06T00:26:49.649Z,98.00
2018-12-06T00:29:19.606Z,98.00
2018-12-06T00:34:31.119Z,98.50
2018-12-06T00:36:59.883Z,98.10
2018-12-06T00:39:30.273Z,97.80
2018-12-06T00:41:58.636Z,97.80
2018-12-06T00:44:28.248Z,97.80
2018-12-06T00:46:57.448Z,98.40
2018-12-06T00:49:26.478Z,97.50
2018-12-06T00:51:55.694Z,97.80
2018-12-06T00:54:24.153Z,97.90
2018-12-06T00:56:52.725Z,98.00
2018-12-06T00:59:24.026Z,97.90
2018-12-06T01:01:53.411Z,98.30
2018-12-06T01:04:22.171Z,98.20
2018-12-06T01:06:51.063Z,98.80
2018-12-06T01:09:20.317Z,97.80
2018-12-06T01:11:48.770Z,98.50
2018-12-06T01:14:17.384Z,98.30
2018-12-06T01:16:45.762Z,98.90
2018-12-06T01:19:14.901Z,98.50
2018-12-06T01:21:43.504Z,98.00
2018-12-06T01:24:29.853Z,98.60
2018-12-06T01:26:58.565Z,98.90
2018-12-06T01:29:27.116Z,98.40
2018-12-06T01:31:56.262Z,98.50
2018-12-06T01:34:25.839Z,98.90
2018-12-06T01:36:54.509Z,99.40
2018-12-06T01:39:23.734Z,98.90
2018-12-06T01:41:52.221Z,98.60
2018-12-06T01:44:21.334Z,99.00
2018-12-06T01:46:50.631Z,99.20
2018-12-06T01:49:19.128Z,98.80
2018-12-06T01:51:47.655Z,99.30
2018-12-06T01:54:16.496Z,98.60
2018-12-06T01:56:45.157Z,99.30
2018-12-06T01:59:14.858Z,98.80
2018-12-06T02:01:43.526Z,99.30
2018-12-06T02:04:12.754Z,99.10
2018-12-06T02:06:41.305Z,99.40
2018-12-06T02:09:10.437Z,99.50
2018-12-06T02:11:41.258Z,99.30
2018-12-06T02:14:09.875Z,98.30
2018-12-06T02:16:39.895Z,99.10
2018-12-06T02:19:08.490Z,98.90
2018-12-06T02:21:37.791Z,98.40
2018-12-06T02:24:07.680Z,98.70
2018-12-06T02:26:36.816Z,98.50
2018-12-06T02:29:05.151Z,98.80
2018-12-06T02:31:35.356Z,99.10
2018-12-06T02:34:05.376Z,99.40
2018-12-06T02:36:33.986Z,99.40
2018-12-06T02:39:04.293Z,99.90
2018-12-06T02:41:34.359Z,99.60
2018-12-06T02:44:03.238Z,99.90
2018-12-06T02:49:15.713Z,99.70
2018-12-06T02:51:44.552Z,99.30
2018-12-06T02:54:14.690Z,98.60
2018-12-06T02:56:43.408Z,98.90
2018-12-06T02:59:13.223Z,99.50
2018-12-06T03:01:42.449Z,99.90
2018-12-06T03:06:55.843Z,99.10
2018-12-06T03:09:25.573Z,99.00
2018-12-06T03:11:55.539Z,99.20
2018-12-06T03:14:24.186Z,99.20
2018-12-06T03:16:53.465Z,99.00
2018-12-06T03:19:23.621Z,99.70
2018-12-06T03:21:52.348Z,98.60
2018-12-06T03:24:27.832Z,99.40
2018-12-06T03:26:56.518Z,99.90
2018-12-06T03:29:27.848Z,99.90
2018-12-06T03:32:03.953Z,99.80
2018-12-06T03:34:33.966Z,99.90
2018-12-06T03:37:04.686Z,99.70
2018-12-06T03:39:33.879Z,99.50
2018-12-06T03:44:44.600Z,99.90
2018-12-06T03:47:14.079Z,99.90
2018-12-06T03:49:43.601Z,99.90
2018-12-06T03:52:12.825Z,99.60
2018-12-06T03:54:45.031Z,99.60
2018-12-06T03:57:14.119Z,99.90
2018-12-06T03:59:45.892Z,99.90
2018-12-06T04:02:14.962Z,99.60
2018-12-06T04:04:47.114Z,99.40
2018-12-06T04:07:17.052Z,99.30
2018-12-06T04:09:47.054Z,99.70
2018-12-06T04:12:30.203Z,99.30
2018-12-06T04:15:00.447Z,99.80
2018-12-06T04:17:31.984Z,99.20
2018-12-06T04:20:01.238Z,99.50
2018-12-06T04:22:30.048Z,99.10
2018-12-06T04:24:59.253Z,99.10
2018-12-06T04:27:29.197Z,99.30
2018-12-06T04:29:58.399Z,98.70
2018-12-06T04:32:27.094Z,98.80
2018-12-06T04:34:57.112Z,98.70
2018-12-06T04:37:28.698Z,99.00
2018-12-06T04:39:57.394Z,98.90
2018-12-06T04:42:26.276Z,98.10
2018-12-06T04:44:56.222Z,97.80
2018-12-06T04:47:25.935Z,98.20
2018-12-06T04:49:55.962Z,98.30
2018-12-06T04:52:31.620Z,98.60
2018-12-06T04:55:00.917Z,98.50
2018-12-06T04:57:30.871Z,98.50
2018-12-06T05:00:01.103Z,99.10
2018-12-06T05:02:30.543Z,99.90
2018-12-06T05:05:00.904Z,98.90
2018-12-06T05:07:32.386Z,99.40
2018-12-06T05:10:02.227Z,98.60
2018-12-06T05:12:31.735Z,99.30
2018-12-06T05:15:01.118Z,99.20
2018-12-06T05:17:31.465Z,98.90
2018-12-06T05:20:01.388Z,99.60
2018-12-06T05:22:29.883Z,99.70
2018-12-06T05:24:58.336Z,98.70
2018-12-06T05:27:27.835Z,99.20
2018-12-06T05:29:56.755Z,99.50
2018-12-06T05:32:25.261Z,99.90
2018-12-06T05:34:54.947Z,99.80
2018-12-06T05:37:24.393Z,99.60
2018-12-06T05:39:53.076Z,99.90
2018-12-06T05:42:21.648Z,99.90
2018-12-06T05:44:51.285Z,99.90
2018-12-06T05:47:19.671Z,99.90
2018-12-06T05:49:48.638Z,99.90
2018-12-06T05:52:17.140Z,99.90
2018-12-06T05:54:45.646Z,99.90
2018-12-06T05:57:14.078Z,99.90
2018-12-06T05:59:43.206Z,99.90
2018-12-06T06:02:14.721Z,99.90
2018-12-06T06:04:44.227Z,99.90
2018-12-06T06:07:12.861Z,99.90
2018-12-06T06:09:41.391Z,99.60
2018-12-06T06:12:10.871Z,99.80
2018-12-06T06:14:39.486Z,99.90
2018-12-06T06:17:08.931Z,99.90
2018-12-06T06:19:37.259Z,99.90
2018-12-06T06:22:06.691Z,99.90
2018-12-06T06:24:35.178Z,99.90
2018-12-06T06:27:04.167Z,99.90
2018-12-06T06:29:32.800Z,99.90
2018-12-06T06:32:01.588Z,99.90
2018-12-06T06:34:30.077Z,99.90
2018-12-06T06:36:59.387Z,99.90
2018-12-06T06:39:27.921Z,99.90
2018-12-06T06:41:56.563Z,99.90
2018-12-06T06:44:25.146Z,99.90
2018-12-06T06:46:54.109Z,99.90
2018-12-06T06:49:22.680Z,99.90
2018-12-06T06:51:51.392Z,99.90
2018-12-06T06:54:20.061Z,99.90
2018-12-06T06:56:48.841Z,99.90
2018-12-06T06:59:17.466Z,99.90
2018-12-06T07:01:46.084Z,99.90
2018-12-06T07:04:15.494Z,99.90
2018-12-06T07:06:45.255Z,99.90
2018-12-06T07:09:14.063Z,99.90
2018-12-06T07:11:43.282Z,99.90
2018-12-06T07:16:50.626Z,99.90
2018-12-06T07:19:19.567Z,99.90
2018-12-06T07:21:48.059Z,99.90
2018-12-06T07:24:16.751Z,99.90
2018-12-06T07:26:45.426Z,99.90
2018-12-06T07:29:13.935Z,99.90
2018-12-06T07:31:42.955Z,99.90
2018-12-06T07:34:12.829Z,99.90
2018-12-06T07:36:41.364Z,99.90
2018-12-06T07:39:10.766Z,99.90
2018-12-06T07:41:40.739Z,99.90
2018-12-06T07:44:09.188Z,99.90
2018-12-06T07:46:37.820Z,99.90
2018-12-06T07:49:06.333Z,99.90
2018-12-06T07:51:34.865Z,99.90
2018-12-06T07:54:03.405Z,99.90
2018-12-06T07:56:31.839Z,99.90
2018-12-06T07:59:00.705Z,99.90
2018-12-06T08:01:30.506Z,99.90
2018-12-06T08:03:59.095Z,99.90
2018-12-06T08:09:09.454Z,99.90
2018-12-06T08:14:27.451Z,99.90
2018-12-06T08:16:55.942Z,99.90
2018-12-06T08:19:25.100Z,99.20
2018-12-06T08:21:53.611Z,99.90
2018-12-06T08:24:22.048Z,99.90
2018-12-06T08:26:50.713Z,99.90
2018-12-06T08:29:24.134Z,99.90
2018-12-06T08:31:54.648Z,99.90
2018-12-06T08:34:23.789Z,99.90
2018-12-06T08:36:52.417Z,99.90
2018-12-06T08:39:22.885Z,99.90
2018-12-06T08:41:51.627Z,99.90
2018-12-06T08:44:22.069Z,99.90
2018-12-06T08:46:50.910Z,99.50
2018-12-06T08:49:19.538Z,98.90
2018-12-06T08:51:48.258Z,99.50
2018-12-06T08:54:17.604Z,99.70
2018-12-06T08:56:46.069Z,99.70
2018-12-06T08:59:14.646Z,99.40
2018-12-06T09:01:43.261Z,99.40
2018-12-06T09:04:11.875Z,99.60
2018-12-06T09:06:41.778Z,99.00
2018-12-06T09:09:10.891Z,99.20
2018-12-06T09:11:42.531Z,99.20
2018-12-06T09:14:11.031Z,99.30
2018-12-06T09:16:39.268Z,99.50
2018-12-06T09:19:07.666Z,98.90
2018-12-06T09:21:36.148Z,99.40
2018-12-06T09:24:04.624Z,99.60
2018-12-06T09:26:33.598Z,99.60
2018-12-06T09:29:03.356Z,99.00
2018-12-06T09:31:32.377Z,99.50
2018-12-06T09:34:05.750Z,99.50
2018-12-06T09:36:37.207Z,99.40
2018-12-06T09:39:10.620Z,98.80
2018-12-06T09:41:39.393Z,98.90
2018-12-06T09:44:16.097Z,98.70
2018-12-06T09:46:44.480Z,98.90
2018-12-06T09:49:12.846Z,98.40
2018-12-06T09:54:34.081Z,98.20
2018-12-06T09:57:14.416Z,98.30
2018-12-06T09:59:44.800Z,98.50
2018-12-06T10:02:13.363Z,98.50
2018-12-06T10:04:42.179Z,98.30
2018-12-06T10:07:12.143Z,98.90
2018-12-06T10:12:26.995Z,98.40
2018-12-06T10:14:56.115Z,98.10
2018-12-06T10:17:30.553Z,99.00
2018-12-06T10:22:50.829Z,98.50
2018-12-06T10:25:19.376Z,98.60
2018-12-06T10:27:48.658Z,99.20
2018-12-06T10:30:17.888Z,98.90
2018-12-06T10:32:48.703Z,98.80
2018-12-06T10:35:19.308Z,98.30
2018-12-06T10:37:48.571Z,98.50
2018-12-06T10:40:17.874Z,98.20
2018-12-06T10:42:46.415Z,97.90
2018-12-06T10:45:14.835Z,98.50
2018-12-06T10:47:44.174Z,97.70
2018-12-06T10:50:12.565Z,97.40
2018-12-06T10:55:20.758Z,97.30
2018-12-06T10:57:49.959Z,97.00
2018-12-06T11:00:24.738Z,97.50
2018-12-06T11:02:58.061Z,97.50
2018-12-06T11:05:28.162Z,97.50
2018-12-06T11:07:56.811Z,97.60
2018-12-06T11:10:25.318Z,96.70
2018-12-06T11:12:53.948Z,96.70
2018-12-06T11:15:24.003Z,95.90
2018-12-06T11:17:52.762Z,96.20
2018-12-06T11:20:35.624Z,96.40
2018-12-06T11:23:05.243Z,96.60
2018-12-06T11:25:33.795Z,96.40
2018-12-06T11:28:03.466Z,96.20
2018-12-06T11:30:33.407Z,96.70
2018-12-06T11:33:02.023Z,95.90
2018-12-06T11:35:30.778Z,96.20
2018-12-06T11:37:59.348Z,95.90
2018-12-06T11:40:31.422Z,96.10
2018-12-06T11:42:59.834Z,95.90
2018-12-06T11:45:28.275Z,96.30
2018-12-06T11:47:56.758Z,96.40
2018-12-06T11:50:26.361Z,96.70
2018-12-06T11:52:55.757Z,96.10
2018-12-06T11:55:24.416Z,95.80
2018-12-06T11:57:52.976Z,95.40
2018-12-06T12:00:21.530Z,96.20
2018-12-06T12:02:50.378Z,96.00
2018-12-06T12:05:18.804Z,96.10
2018-12-06T12:07:48.339Z,95.70
2018-12-06T12:10:18.224Z,95.70
2018-12-06T12:15:25.825Z,96.10
2018-12-06T12:17:54.227Z,95.30
2018-12-06T12:20:22.520Z,95.30
2018-12-06T12:22:51.410Z,95.70
2018-12-06T12:25:19.929Z,95.70
2018-12-06T12:27:48.502Z,96.10
2018-12-06T12:30:16.993Z,95.60
2018-12-06T12:32:45.333Z,95.10
2018-12-06T12:35:13.823Z,94.90
2018-12-06T12:37:42.478Z,95.30
2018-12-06T12:40:12.130Z,95.50
2018-12-06T12:42:40.668Z,95.30
2018-12-06T12:45:10.240Z,94.80
2018-12-06T12:47:38.710Z,95.00
2018-12-06T12:50:08.916Z,95.50
2018-12-06T12:52:38.062Z,95.70
2018-12-06T12:55:06.702Z,95.40
2018-12-06T12:57:36.043Z,96.30
2018-12-06T13:00:06.165Z,95.70
2018-12-06T13:05:18.271Z,94.50
2018-12-06T13:07:46.942Z,95.00
2018-12-06T13:10:16.218Z,95.00
2018-12-06T13:12:45.900Z,94.90
2018-12-06T13:15:14.746Z,95.20
2018-12-06T13:17:43.361Z,95.80
2018-12-06T13:20:12.183Z,95.40
2018-12-06T13:22:41.516Z,95.50
2018-12-06T13:25:11.035Z,95.80
2018-12-06T13:27:42.692Z,96.10
2018-12-06T13:30:12.537Z,96.50
2018-12-06T13:32:41.292Z,96.90
2018-12-06T13:35:11.000Z,96.60
2018-12-06T13:37:41.535Z,97.30
2018-12-06T13:40:11.107Z,97.00
2018-12-06T13:42:39.667Z,97.90
2018-12-06T13:45:08.747Z,97.80
2018-12-06T13:47:39.177Z,97.90
2018-12-06T13:50:09.754Z,98.10
2018-12-06T13:52:39.149Z,98.20
2018-12-06T13:55:08.447Z,98.30
2018-12-06T13:57:42.361Z,97.90
2018-12-06T14:00:11.011Z,98.70
2018-12-06T14:02:40.150Z,98.70
2018-12-06T14:05:10.766Z,98.90
2018-12-06T14:07:40.773Z,98.80
2018-12-06T14:10:11.407Z,98.40
2018-12-06T14:12:40.043Z,98.20
2018-12-06T14:15:08.821Z,97.60
2018-12-06T14:17:39.137Z,97.90
2018-12-06T14:20:09.794Z,97.40
2018-12-06T14:22:38.293Z,97.60
2018-12-06T14:25:07.548Z,97.60
2018-12-06T14:31:03.592Z,98.30
2018-12-06T14:33:44.276Z,97.90
2018-12-06T14:36:17.594Z,97.80
2018-12-06T14:38:50.840Z,98.40
2018-12-06T14:41:36.169Z,97.90
2018-12-06T14:44:05.582Z,97.90
2018-12-06T14:46:41.688Z,98.30
2018-12-06T14:52:33.316Z,97.80
2018-12-06T14:55:05.683Z,98.00
2018-12-06T14:57:46.418Z,97.50
2018-12-06T15:00:22.420Z,97.80
2018-12-06T15:02:55.901Z,98.00
2018-12-06T15:05:29.466Z,97.80
2018-12-06T15:08:04.376Z,97.30
2018-12-06T15:10:35.540Z,97.70
2018-12-06T15:13:12.018Z,97.50
2018-12-06T15:18:40.557Z,97.10
2018-12-06T15:21:13.382Z,97.40
2018-12-06T15:23:42.444Z,98.10
2018-12-06T15:26:14.194Z,97.50
2018-12-06T15:28:47.121Z,98.10
2018-12-06T15:31:23.207Z,97.90
2018-12-06T15:33:55.753Z,98.10
2018-12-06T15:36:25.755Z,98.00
2018-12-06T15:42:05.586Z,97.50
2018-12-06T15:44:44.716Z,98.00
2018-12-06T15:47:13.472Z,97.70
2018-12-06T15:49:41.921Z,97.60
2018-12-06T15:52:10.174Z,97.30
2018-12-06T15:54:38.593Z,97.30
2018-12-06T15:57:07.018Z,97.10
2018-12-06T15:59:35.350Z,97.60
2018-12-06T16:02:04.391Z,96.70
2018-12-06T16:04:33.139Z,97.20
2018-12-06T16:07:02.620Z,97.00
2018-12-06T16:09:31.913Z,97.50
2018-12-06T16:12:00.466Z,97.10
2018-12-06T16:14:28.843Z,97.40
2018-12-06T16:16:59.589Z,97.20
2018-12-06T16:19:28.397Z,96.60
2018-12-06T16:21:56.847Z,96.80
2018-12-06T16:24:25.511Z,96.80
2018-12-06T16:26:53.969Z,96.50
2018-12-06T16:29:23.566Z,96.40
2018-12-06T16:31:52.242Z,96.90
2018-12-06T16:34:20.786Z,96.40
2018-12-06T16:36:49.186Z,96.50
2018-12-06T16:39:17.609Z,96.40
2018-12-06T16:41:46.954Z,96.70
2018-12-06T16:44:15.549Z,96.80
2018-12-06T16:46:44.087Z,97.10
2018-12-06T16:49:12.472Z,97.00
2018-12-06T16:51:42.391Z,96.70
2018-12-06T16:54:10.819Z,96.90
2018-12-06T16:56:39.237Z,96.90
2018-12-06T16:59:07.904Z,97.00
2018-12-06T17:01:36.541Z,97.00
2018-12-06T17:04:05.172Z,96.60
2018-12-06T17:06:33.860Z,97.00
2018-12-06T17:09:03.407Z,96.70
2018-12-06T17:11:31.826Z,97.40
2018-12-06T17:14:00.272Z,97.10
2018-12-06T17:16:28.590Z,97.40
2018-12-06T17:18:57.214Z,97.50
2018-12-06T17:21:26.095Z,97.60
2018-12-06T17:23:54.408Z,96.90
2018-12-06T17:26:22.708Z,96.80
2018-12-06T17:28:51.225Z,97.00
2018-12-06T17:31:20.897Z,97.00
2018-12-06T17:33:49.202Z,97.60
2018-12-06T17:36:18.492Z,97.20
2018-12-06T17:38:47.306Z,97.20
2018-12-06T17:41:16.836Z,97.70
2018-12-06T17:43:47.675Z,97.60
2018-12-06T17:46:17.220Z,97.70
2018-12-06T17:48:46.488Z,97.40
2018-12-06T17:51:15.288Z,97.00
2018-12-06T17:53:43.779Z,96.90
2018-12-06T17:56:12.039Z,97.50
2018-12-06T17:58:40.392Z,97.60
2018-12-06T18:01:09.229Z,97.90
2018-12-06T18:03:37.570Z,97.20
2018-12-06T18:06:07.098Z,97.20
2018-12-06T18:08:35.700Z,97.50
2018-12-06T18:11:04.356Z,97.40
2018-12-06T18:13:33.218Z,98.00
2018-12-06T18:18:41.886Z,98.10
2018-12-06T18:21:10.563Z,97.80
2018-12-06T18:23:39.422Z,97.80
2018-12-06T18:26:07.934Z,98.30
2018-12-06T18:28:36.311Z,97.50
2018-12-06T18:31:04.569Z,97.70
2018-12-06T18:33:32.952Z,97.90
2018-12-06T18:36:02.278Z,97.50
2018-12-06T18:38:30.724Z,98.50
2018-12-06T18:40:59.474Z,97.80
2018-12-06T18:43:28.325Z,97.90
2018-12-06T18:46:01.765Z,97.80
2018-12-06T18:48:30.504Z,97.60
2018-12-06T18:51:07.278Z,98.00
2018-12-06T18:53:38.241Z,97.80
2018-12-06T18:56:09.154Z,97.50
2018-12-06T18:58:38.275Z,97.90
2018-12-06T19:01:08.124Z,98.00
2018-12-06T19:03:36.868Z,97.80
2018-12-06T19:06:06.887Z,97.60
2018-12-06T19:08:35.990Z,97.60
2018-12-06T19:11:04.577Z,97.30
2018-12-06T19:13:33.876Z,97.70
2018-12-06T19:16:03.748Z,97.30
2018-12-06T19:18:32.711Z,97.50
2018-12-06T19:21:01.384Z,97.90
2018-12-06T19:23:33.212Z,98.80
2018-12-06T19:26:03.285Z,99.00
2018-12-06T19:28:32.956Z,99.60
2018-12-06T19:31:02.577Z,99.80
2018-12-06T19:33:31.599Z,99.90
2018-12-06T19:36:01.770Z,99.80
2018-12-06T19:38:45.899Z,99.90
2018-12-06T19:41:17.879Z,99.90
2018-12-06T19:43:49.237Z,99.90
2018-12-06T19:46:18.663Z,99.90
2018-12-06T19:48:49.641Z,99.90
2018-12-06T19:51:33.146Z,99.90
2018-12-06T19:54:04.224Z,99.90
2018-12-06T19:56:33.864Z,99.90
2018-12-06T19:59:02.461Z,99.90
2018-12-06T20:01:33.803Z,99.90
2018-12-06T20:04:02.821Z,99.70
2018-12-06T20:06:38.683Z,99.50
2018-12-06T20:09:10.296Z,99.70
2018-12-06T20:11:41.610Z,99.90
2018-12-06T20:14:10.740Z,99.70
2018-12-06T20:16:39.970Z,99.90
2018-12-06T20:19:08.720Z,99.20
2018-12-06T20:21:37.229Z,98.90
2018-12-06T20:24:05.994Z,99.60
2018-12-06T20:26:40.558Z,99.60
2018-12-06T20:29:09.189Z,99.10
2018-12-06T20:31:39.221Z,99.10
2018-12-06T20:34:08.147Z,99.00
2018-12-06T20:36:39.960Z,99.20
2018-12-06T20:39:09.121Z,99.30
2018-12-06T20:41:38.231Z,99.20
2018-12-06T20:44:10.587Z,98.70
2018-12-06T20:46:39.877Z,99.10
2018-12-06T20:49:18.578Z,98.70
2018-12-06T20:51:47.254Z,98.80
2018-12-06T20:54:16.438Z,98.80
2018-12-06T20:56:48.336Z,98.90
2018-12-06T20:59:17.083Z,98.90
2018-12-06T21:04:31.499Z,98.20
2018-12-06T21:07:00.958Z,97.90
2018-12-06T21:09:29.600Z,97.70
2018-12-06T21:11:58.419Z,98.10
2018-12-06T21:14:27.041Z,98.40
2018-12-06T21:16:58.499Z,98.40
2018-12-06T21:19:26.976Z,98.70
2018-12-06T21:21:58.600Z,98.70
2018-12-06T21:24:28.670Z,99.10
2018-12-06T21:26:57.955Z,99.90
2018-12-06T21:29:26.367Z,99.90
2018-12-06T21:31:54.931Z,99.90
2018-12-06T21:34:23.475Z,99.90
2018-12-06T21:36:52.032Z,99.90
2018-12-06T21:39:21.346Z,99.90
2018-12-06T21:41:50.918Z,99.70
2018-12-06T21:44:19.508Z,99.70
2018-12-06T21:46:47.927Z,99.80
2018-12-06T21:49:16.565Z,99.90
2018-12-06T21:51:46.770Z,99.60
2018-12-06T21:54:15.272Z,99.90
2018-12-06T21:56:44.022Z,99.90
2018-12-06T21:59:12.550Z,99.90
2018-12-06T22:01:41.239Z,99.90
2018-12-06T22:04:11.202Z,99.90
2018-12-06T22:06:39.749Z,99.90
2018-12-06T22:09:09.095Z,99.90
2018-12-06T22:11:38.226Z,99.90
2018-12-06T22:14:08.768Z,99.90
2018-12-06T22:16:37.311Z,99.90
2018-12-06T22:19:05.893Z,99.90
2018-12-06T22:21:35.855Z,99.90
2018-12-06T22:24:06.054Z,99.90
2018-12-06T22:26:34.612Z,99.90
2018-12-06T22:29:03.771Z,99.90
2018-12-06T22:31:32.440Z,99.90
2018-12-06T22:36:45.684Z,99.90
2018-12-06T22:39:15.192Z,99.90
2018-12-06T22:44:28.620Z,99.90
2018-12-06T22:46:58.317Z,99.90
2018-12-06T22:49:26.852Z,99.90
2018-12-06T22:51:57.465Z,99.90
2018-12-06T22:54:26.717Z,99.90
2018-12-06T22:56:55.356Z,99.90
2018-12-06T22:59:24.619Z,99.90
2018-12-06T23:01:53.956Z,99.90
2018-12-06T23:04:22.826Z,99.90
2018-12-06T23:06:52.460Z,99.90
2018-12-06T23:09:24.413Z,99.90
2018-12-06T23:11:53.758Z,99.90
2018-12-06T23:14:23.238Z,99.90
2018-12-06T23:19:32.465Z,99.90
2018-12-06T23:22:02.059Z,99.90
2018-12-06T23:24:30.830Z,99.90
2018-12-06T23:26:59.966Z,99.90
2018-12-06T23:29:29.377Z,99.90
2018-12-06T23:31:59.063Z,99.90
2018-12-06T23:34:30.375Z,99.90
2018-12-06T23:36:58.884Z,99.90
2018-12-06T23:39:28.907Z,99.90
2018-12-06T23:41:58.825Z,99.90
2018-12-06T23:44:27.810Z,99.90
2018-12-06T23:46:57.486Z,99.90
2018-12-06T23:49:26.011Z,99.90
2018-12-06T23:51:56.128Z,99.90
2018-12-06T23:54:24.718Z,99.90
2018-12-06T23:56:53.459Z,99.90
2018-12-06T23:59:22.810Z,99.90
